Malibu — ZCGB — position and weather

sailwx.info

Track history (hours):
 
Tides and Currents Weather Stations Pressure Air Temp Water Temp Dewpoint Dewpoint Depression Visibility Wind Speed Wind Dir Waves Ship Positions

Malibu

Last reported at 2016-Jun-03 20:21 UTC. Time now 2016-Jun-25 21:31 UTC.
Position N 43°29' E 007°03'.
Warning: this ship's position is 22 days out of date.

Length 50 m; draft 3.4 m.

Type: Pleasure craft. MMSI: 319663000.

Date/timePositionNaut miles runAvg speedWind from/ knotsBaromVisibWave heightAir tempDewpointWater temp
2016-Jun-03 20:21N 43°29' E 007°03'4 1.3
2016-Jun-03 17:32N 43°33' E 007°01'0 0.0
2016-Jun-03 16:32N 43°33' E 007°01'0 0.0
2016-Jun-03 15:32N 43°33' E 007°01'0 0.0
2016-Jun-03 14:20N 43°33' E 007°01'0 0.0
2016-Jun-03 13:32N 43°33' E 007°01'0 0.0
2016-Jun-03 12:26N 43°33' E 007°01'0 0.0
2016-Jun-03 10:08N 43°33' E 007°01'0 0.0
2016-Jun-03 09:26N 43°33' E 007°01'0 0.0
2016-Jun-03 08:32N 43°33' E 007°01'0 0.0
2016-Jun-03 07:29N 43°33' E 007°01'0 0.0
2016-Jun-03 04:32N 43°33' E 007°01'0 0.0
2016-Jun-03 03:32N 43°33' E 007°01'0 0.0
2016-Jun-03 00:14N 43°33' E 007°01'0 0.0
2016-Jun-02 23:32N 43°33' E 007°01'0 0.0
2016-Jun-02 22:32N 43°33' E 007°01'0 0.0
2016-Jun-02 20:17N 43°33' E 007°01'0 0.0
2016-Jun-02 19:32N 43°33' E 007°01'0 0.0
2016-Jun-02 18:29N 43°33' E 007°01'0 0.0
2016-Jun-02 15:32N 43°33' E 007°01'0 0.0
2016-Jun-02 14:32N 43°33' E 007°01'0 0.0
2016-Jun-02 11:32N 43°33' E 007°01'0 0.0
2016-Jun-02 10:32N 43°33' E 007°01'0 0.0
2016-Jun-02 07:11N 43°33' E 007°01'1 0.9
2016-Jun-02 06:11N 43°32' E 007°01'0 0.0
2016-Jun-02 05:32N 43°32' E 007°01'0 0.0
2016-Jun-02 04:32N 43°32' E 007°01'2 2.1
2016-Jun-02 03:33N 43°30' E 007°01'1010.3
2016-Jun-02 02:33N 43°32' E 007°15'6412.0
2016-Jun-01 21:12N 44°04' E 008°33'811.9
2016-Jun-01 20:32N 44°09' E 008°41'1211.9
2016-Jun-01 19:33N 44°17' E 008°53'7 7.4
2016-Jun-01 18:33N 44°25' E 008°55'0 0.0
2016-Jun-01 17:30N 44°25' E 008°55'0 0.0
2016-Jun-01 16:30N 44°25' E 008°55'0 0.0
2016-Jun-01 15:24N 44°25' E 008°55'0 0.0
2016-Jun-01 14:30N 44°25' E 008°55'0 0.0
2016-Jun-01 13:30N 44°25' E 008°55'0 0.0
2016-Jun-01 12:30N 44°25' E 008°55'0 0.0
2016-Jun-01 11:30N 44°25' E 008°55'0 0.0
2016-Jun-01 10:33N 44°25' E 008°55'0 0.0
2016-Jun-01 09:33N 44°25' E 008°55'0 0.0
2016-Jun-01 08:33N 44°25' E 008°55'0 0.0
2016-Jun-01 07:33N 44°25' E 008°55'0 0.0
2016-Jun-01 06:33N 44°25' E 008°55'0 0.0
2016-Jun-01 05:33N 44°25' E 008°55'0 0.0
2016-Jun-01 04:30N 44°25' E 008°55'0 0.0
2016-Jun-01 03:30N 44°25' E 008°55'0 0.0
2016-Jun-01 02:30N 44°25' E 008°55'0 0.0
2016-Jun-01 01:30N 44°25' E 008°55'0 0.0
2016-Jun-01 00:27N 44°25' E 008°55'0 0.0
2016-May-31 23:30N 44°25' E 008°55'0 0.0
2016-May-31 22:30N 44°25' E 008°55'0 0.0
2016-May-31 21:30N 44°25' E 008°55'0 0.0
2016-May-31 20:33N 44°25' E 008°55'0 0.0
2016-May-31 19:33N 44°25' E 008°55'0 0.0
2016-May-31 18:33N 44°25' E 008°55'0 0.0
2016-May-31 17:33N 44°25' E 008°55'0 0.0
2016-May-31 16:33N 44°25' E 008°55'0 0.0
2016-May-31 15:24N 44°25' E 008°55'0 0.0
2016-May-31 14:24N 44°25' E 008°55'0 0.0
2016-May-31 13:24N 44°25' E 008°55'0 0.0
2016-May-31 12:30N 44°25' E 008°55'0 0.0
2016-May-31 11:27N 44°25' E 008°55'0 0.0
2016-May-31 10:33N 44°25' E 008°55'0 0.0
2016-May-31 09:33N 44°25' E 008°55'0 0.0
2016-May-31 08:33N 44°25' E 008°55'0 0.0
2016-May-31 07:30N 44°25' E 008°55'0 0.0
2016-May-31 06:33N 44°25' E 008°55'0 0.0
2016-May-31 04:30N 44°25' E 008°55'0 0.0
2016-May-31 03:33N 44°25' E 008°55'0 0.0
2016-May-31 02:33N 44°25' E 008°55'0 0.0
2016-May-31 01:33N 44°25' E 008°55'0 0.0
2016-May-31 00:33N 44°25' E 008°55'0 0.0
2016-May-30 23:30N 44°25' E 008°55'0 0.0
2016-May-30 22:33N 44°25' E 008°55'0 0.0
2016-May-30 21:27N 44°25' E 008°55'0 0.0
2016-May-30 20:27N 44°25' E 008°55'0 0.0
2016-May-30 19:30N 44°25' E 008°55'0 0.0
2016-May-30 18:30N 44°25' E 008°55'0 0.0
2016-May-30 17:30N 44°25' E 008°55'0 0.0
2016-May-30 16:33N 44°25' E 008°55'0 0.0
2016-May-30 15:33N 44°25' E 008°55'0 0.0
2016-May-30 14:33N 44°25' E 008°55'0 0.0
2016-May-30 13:33N 44°25' E 008°55'0 0.0
2016-May-30 12:33N 44°25' E 008°55'0 0.0
2016-May-30 11:24N 44°25' E 008°55'0 0.0
2016-May-30 10:33N 44°25' E 008°55'0 0.0
2016-May-30 09:33N 44°25' E 008°55'0 0.0
2016-May-30 08:27N 44°25' E 008°55'0 0.0
2016-May-30 07:30N 44°25' E 008°55'0 0.0
2016-May-30 06:30N 44°25' E 008°55'0 0.0
2016-May-30 05:30N 44°25' E 008°55'0 0.0
2016-May-30 04:33N 44°25' E 008°55'0 0.0
2016-May-30 03:27N 44°25' E 008°55'0 0.0
2016-May-30 02:33N 44°25' E 008°55'0 0.0
2016-May-30 01:33N 44°25' E 008°55'0 0.0
2016-May-30 00:33N 44°25' E 008°55'0 0.0
2016-May-29 23:33N 44°25' E 008°55'0 0.0
2016-May-29 22:33N 44°25' E 008°55'0 0.0
2016-May-29 21:33N 44°25' E 008°55'0 0.0
2016-May-29 20:33N 44°25' E 008°55'0 0.0
2016-May-29 19:24N 44°25' E 008°55'0 0.0
2016-May-29 18:30N 44°25' E 008°55'0 0.0
2016-May-29 17:33N 44°25' E 008°55'0 0.0
2016-May-29 16:27N 44°25' E 008°55'0 0.0
2016-May-29 15:30N 44°25' E 008°55'0 0.0
2016-May-29 14:30N 44°25' E 008°55'0 0.0
2016-May-29 13:30N 44°25' E 008°55'0 0.1
2016-May-29 12:33N 44°25' E 008°55'8 8.2
2016-May-29 11:33N 44°19' E 009°03'7 1.7
2016-May-29 07:32N 44°18' E 009°13'0 0.0
2016-May-29 05:23N 44°18' E 009°13'0 0.0
2016-May-29 03:29N 44°18' E 009°13'0 0.0
2016-May-29 02:17N 44°18' E 009°13'0 0.0
2016-May-29 01:29N 44°18' E 009°13'0 0.0
2016-May-29 00:32N 44°18' E 009°13'0 0.0
2016-May-28 21:32N 44°18' E 009°13'0 0.0
2016-May-28 20:32N 44°18' E 009°13'0 0.0
2016-May-28 19:26N 44°18' E 009°13'0 0.0
2016-May-28 18:14N 44°18' E 009°13'0 0.0
2016-May-28 17:32N 44°18' E 009°13'0 0.0
2016-May-28 16:32N 44°18' E 009°13'0 0.0
2016-May-28 15:32N 44°18' E 009°13'0 0.0
2016-May-28 14:32N 44°18' E 009°13'0 0.0
2016-May-28 13:32N 44°18' E 009°13'0 0.0
2016-May-28 12:29N 44°18' E 009°13'0 0.0
2016-May-28 11:29N 44°18' E 009°13'0 0.0
2016-May-28 10:32N 44°18' E 009°13'0 0.0
2016-May-28 09:29N 44°18' E 009°13'0 0.0
2016-May-28 08:33N 44°18' E 009°13'0 0.3
2016-May-28 07:34N 44°18' E 009°13'0 0.0
2016-May-28 06:31N 44°18' E 009°13'0 0.0
2016-May-28 05:31N 44°18' E 009°13'0 0.0
2016-May-28 04:31N 44°18' E 009°13'0 0.0
2016-May-28 03:34N 44°18' E 009°13'0 0.0
2016-May-28 02:28N 44°18' E 009°13'0 0.0
2016-May-28 01:31N 44°18' E 009°13'0 0.0
2016-May-28 00:31N 44°18' E 009°13'0 0.0
2016-May-27 23:34N 44°18' E 009°13'0 0.0
2016-May-27 22:31N 44°18' E 009°13'0 0.0
2016-May-27 21:28N 44°18' E 009°13'0 0.0
2016-May-27 20:31N 44°18' E 009°13'0 0.0
2016-May-27 19:28N 44°18' E 009°13'0 0.0
2016-May-27 14:28N 44°18' E 009°13'0 0.0
2016-May-27 12:31N 44°18' E 009°13'0 0.1
2016-May-27 10:15N 44°18' E 009°13'0 0.0
2016-May-26 14:33N 44°18' E 009°14'0 0.0
2016-May-26 12:33N 44°18' E 009°14'0 0.0
2016-May-26 11:15N 44°18' E 009°14'1 0.0
2016-May-25 17:09N 44°18' E 009°13'0 0.1
2016-May-25 16:33N 44°18' E 009°13'0 0.0
2016-May-25 15:27N 44°18' E 009°13'1 1.2
2016-May-25 14:33N 44°18' E 009°12'1111.1
2016-May-25 13:33N 44°22' E 008°57'3 3.0
2016-May-25 12:32N 44°25' E 008°55'0 0.0
2016-May-25 11:32N 44°25' E 008°55'0 0.0
2016-May-25 10:29N 44°25' E 008°55'0 0.0
2016-May-25 09:23N 44°25' E 008°55'0 0.0
2016-May-25 08:29N 44°25' E 008°55'0 0.0
2016-May-25 07:26N 44°25' E 008°55'0 0.0
2016-May-25 06:29N 44°25' E 008°55'0 0.0
2016-May-25 05:29N 44°25' E 008°55'0 0.0
2016-May-25 04:32N 44°25' E 008°55'0 0.0
2016-May-25 03:32N 44°25' E 008°55'0 0.0
2016-May-25 02:32N 44°25' E 008°55'0 0.0
2016-May-25 01:32N 44°25' E 008°55'0 0.0
2016-May-25 00:32N 44°25' E 008°55'0 0.0
2016-May-24 23:32N 44°25' E 008°55'0 0.0
2016-May-24 22:32N 44°25' E 008°55'0 0.0
2016-May-24 21:32N 44°25' E 008°55'0 0.0
2016-May-24 20:32N 44°25' E 008°55'  
Track history (hours):
 
Tides and Currents Weather Stations Pressure Air Temp Water Temp Dewpoint Dewpoint Depression Visibility Wind Speed Wind Dir Waves Ship Positions

Malibu

Last reported at 2016-Jun-03 20:21 UTC. Time now 2016-Jun-25 21:31 UTC.
Position N 43°29' E 007°03'.
Warning: this ship's position is 22 days out of date.

Length 50 m; draft 3.4 m.

Type: Pleasure craft. MMSI: 319663000.

Date/timePositionNaut miles runAvg speedWind from/ knotsBaromVisibWave heightAir tempDewpointWater temp
2016-Jun-03 20:21N 43°29' E 007°03'4 1.3
2016-Jun-03 17:32N 43°33' E 007°01'0 0.0
2016-Jun-03 16:32N 43°33' E 007°01'0 0.0
2016-Jun-03 15:32N 43°33' E 007°01'0 0.0
2016-Jun-03 14:20N 43°33' E 007°01'0 0.0
2016-Jun-03 13:32N 43°33' E 007°01'0 0.0
2016-Jun-03 12:26N 43°33' E 007°01'0 0.0
2016-Jun-03 10:08N 43°33' E 007°01'0 0.0
2016-Jun-03 09:26N 43°33' E 007°01'0 0.0
2016-Jun-03 08:32N 43°33' E 007°01'0 0.0
2016-Jun-03 07:29N 43°33' E 007°01'0 0.0
2016-Jun-03 04:32N 43°33' E 007°01'0 0.0
2016-Jun-03 03:32N 43°33' E 007°01'0 0.0
2016-Jun-03 00:14N 43°33' E 007°01'0 0.0
2016-Jun-02 23:32N 43°33' E 007°01'0 0.0
2016-Jun-02 22:32N 43°33' E 007°01'0 0.0
2016-Jun-02 20:17N 43°33' E 007°01'0 0.0
2016-Jun-02 19:32N 43°33' E 007°01'0 0.0
2016-Jun-02 18:29N 43°33' E 007°01'0 0.0
2016-Jun-02 15:32N 43°33' E 007°01'0 0.0
2016-Jun-02 14:32N 43°33' E 007°01'0 0.0
2016-Jun-02 11:32N 43°33' E 007°01'0 0.0
2016-Jun-02 10:32N 43°33' E 007°01'0 0.0
2016-Jun-02 07:11N 43°33' E 007°01'1 0.9
2016-Jun-02 06:11N 43°32' E 007°01'0 0.0
2016-Jun-02 05:32N 43°32' E 007°01'0 0.0
2016-Jun-02 04:32N 43°32' E 007°01'2 2.1
2016-Jun-02 03:33N 43°30' E 007°01'1010.3
2016-Jun-02 02:33N 43°32' E 007°15'6412.0
2016-Jun-01 21:12N 44°04' E 008°33'811.9
2016-Jun-01 20:32N 44°09' E 008°41'1211.9
2016-Jun-01 19:33N 44°17' E 008°53'7 7.4
2016-Jun-01 18:33N 44°25' E 008°55'0 0.0
2016-Jun-01 17:30N 44°25' E 008°55'0 0.0
2016-Jun-01 16:30N 44°25' E 008°55'0 0.0
2016-Jun-01 15:24N 44°25' E 008°55'0 0.0
2016-Jun-01 14:30N 44°25' E 008°55'0 0.0
2016-Jun-01 13:30N 44°25' E 008°55'0 0.0
2016-Jun-01 12:30N 44°25' E 008°55'0 0.0
2016-Jun-01 11:30N 44°25' E 008°55'0 0.0
2016-Jun-01 10:33N 44°25' E 008°55'0 0.0
2016-Jun-01 09:33N 44°25' E 008°55'0 0.0
2016-Jun-01 08:33N 44°25' E 008°55'0 0.0
2016-Jun-01 07:33N 44°25' E 008°55'0 0.0
2016-Jun-01 06:33N 44°25' E 008°55'0 0.0
2016-Jun-01 05:33N 44°25' E 008°55'0 0.0
2016-Jun-01 04:30N 44°25' E 008°55'0 0.0
2016-Jun-01 03:30N 44°25' E 008°55'0 0.0
2016-Jun-01 02:30N 44°25' E 008°55'0 0.0
2016-Jun-01 01:30N 44°25' E 008°55'0 0.0
2016-Jun-01 00:27N 44°25' E 008°55'0 0.0
2016-May-31 23:30N 44°25' E 008°55'0 0.0
2016-May-31 22:30N 44°25' E 008°55'0 0.0
2016-May-31 21:30N 44°25' E 008°55'0 0.0
2016-May-31 20:33N 44°25' E 008°55'0 0.0
2016-May-31 19:33N 44°25' E 008°55'0 0.0
2016-May-31 18:33N 44°25' E 008°55'0 0.0
2016-May-31 17:33N 44°25' E 008°55'0 0.0
2016-May-31 16:33N 44°25' E 008°55'0 0.0
2016-May-31 15:24N 44°25' E 008°55'0 0.0
2016-May-31 14:24N 44°25' E 008°55'0 0.0
2016-May-31 13:24N 44°25' E 008°55'0 0.0
2016-May-31 12:30N 44°25' E 008°55'0 0.0
2016-May-31 11:27N 44°25' E 008°55'0 0.0
2016-May-31 10:33N 44°25' E 008°55'0 0.0
2016-May-31 09:33N 44°25' E 008°55'0 0.0
2016-May-31 08:33N 44°25' E 008°55'0 0.0
2016-May-31 07:30N 44°25' E 008°55'0 0.0
2016-May-31 06:33N 44°25' E 008°55'0 0.0
2016-May-31 04:30N 44°25' E 008°55'0 0.0
2016-May-31 03:33N 44°25' E 008°55'0 0.0
2016-May-31 02:33N 44°25' E 008°55'0 0.0
2016-May-31 01:33N 44°25' E 008°55'0 0.0
2016-May-31 00:33N 44°25' E 008°55'0 0.0
2016-May-30 23:30N 44°25' E 008°55'0 0.0
2016-May-30 22:33N 44°25' E 008°55'0 0.0
2016-May-30 21:27N 44°25' E 008°55'0 0.0
2016-May-30 20:27N 44°25' E 008°55'0 0.0
2016-May-30 19:30N 44°25' E 008°55'0 0.0
2016-May-30 18:30N 44°25' E 008°55'0 0.0
2016-May-30 17:30N 44°25' E 008°55'0 0.0
2016-May-30 16:33N 44°25' E 008°55'0 0.0
2016-May-30 15:33N 44°25' E 008°55'0 0.0
2016-May-30 14:33N 44°25' E 008°55'0 0.0
2016-May-30 13:33N 44°25' E 008°55'0 0.0
2016-May-30 12:33N 44°25' E 008°55'0 0.0
2016-May-30 11:24N 44°25' E 008°55'0 0.0
2016-May-30 10:33N 44°25' E 008°55'0 0.0
2016-May-30 09:33N 44°25' E 008°55'0 0.0
2016-May-30 08:27N 44°25' E 008°55'0 0.0
2016-May-30 07:30N 44°25' E 008°55'0 0.0
2016-May-30 06:30N 44°25' E 008°55'0 0.0
2016-May-30 05:30N 44°25' E 008°55'0 0.0
2016-May-30 04:33N 44°25' E 008°55'0 0.0
2016-May-30 03:27N 44°25' E 008°55'0 0.0
2016-May-30 02:33N 44°25' E 008°55'0 0.0
2016-May-30 01:33N 44°25' E 008°55'0 0.0
2016-May-30 00:33N 44°25' E 008°55'0 0.0
2016-May-29 23:33N 44°25' E 008°55'0 0.0
2016-May-29 22:33N 44°25' E 008°55'0 0.0
2016-May-29 21:33N 44°25' E 008°55'0 0.0
2016-May-29 20:33N 44°25' E 008°55'0 0.0
2016-May-29 19:24N 44°25' E 008°55'0 0.0
2016-May-29 18:30N 44°25' E 008°55'0 0.0
2016-May-29 17:33N 44°25' E 008°55'0 0.0
2016-May-29 16:27N 44°25' E 008°55'0 0.0
2016-May-29 15:30N 44°25' E 008°55'0 0.0
2016-May-29 14:30N 44°25' E 008°55'0 0.0
2016-May-29 13:30N 44°25' E 008°55'0 0.1
2016-May-29 12:33N 44°25' E 008°55'8 8.2
2016-May-29 11:33N 44°19' E 009°03'7 1.7
2016-May-29 07:32N 44°18' E 009°13'0 0.0
2016-May-29 05:23N 44°18' E 009°13'0 0.0
2016-May-29 03:29N 44°18' E 009°13'0 0.0
2016-May-29 02:17N 44°18' E 009°13'0 0.0
2016-May-29 01:29N 44°18' E 009°13'0 0.0
2016-May-29 00:32N 44°18' E 009°13'0 0.0
2016-May-28 21:32N 44°18' E 009°13'0 0.0
2016-May-28 20:32N 44°18' E 009°13'0 0.0
2016-May-28 19:26N 44°18' E 009°13'0 0.0
2016-May-28 18:14N 44°18' E 009°13'0 0.0
2016-May-28 17:32N 44°18' E 009°13'0 0.0
2016-May-28 16:32N 44°18' E 009°13'0 0.0
2016-May-28 15:32N 44°18' E 009°13'0 0.0
2016-May-28 14:32N 44°18' E 009°13'0 0.0
2016-May-28 13:32N 44°18' E 009°13'0 0.0
2016-May-28 12:29N 44°18' E 009°13'0 0.0
2016-May-28 11:29N 44°18' E 009°13'0 0.0
2016-May-28 10:32N 44°18' E 009°13'0 0.0
2016-May-28 09:29N 44°18' E 009°13'0 0.0
2016-May-28 08:33N 44°18' E 009°13'0 0.3
2016-May-28 07:34N 44°18' E 009°13'0 0.0
2016-May-28 06:31N 44°18' E 009°13'0 0.0
2016-May-28 05:31N 44°18' E 009°13'0 0.0
2016-May-28 04:31N 44°18' E 009°13'0 0.0
2016-May-28 03:34N 44°18' E 009°13'0 0.0
2016-May-28 02:28N 44°18' E 009°13'0 0.0
2016-May-28 01:31N 44°18' E 009°13'0 0.0
2016-May-28 00:31N 44°18' E 009°13'0 0.0
2016-May-27 23:34N 44°18' E 009°13'0 0.0
2016-May-27 22:31N 44°18' E 009°13'0 0.0
2016-May-27 21:28N 44°18' E 009°13'0 0.0
2016-May-27 20:31N 44°18' E 009°13'0 0.0
2016-May-27 19:28N 44°18' E 009°13'0 0.0
2016-May-27 14:28N 44°18' E 009°13'0 0.0
2016-May-27 12:31N 44°18' E 009°13'0 0.1
2016-May-27 10:15N 44°18' E 009°13'0 0.0
2016-May-26 14:33N 44°18' E 009°14'0 0.0
2016-May-26 12:33N 44°18' E 009°14'0 0.0
2016-May-26 11:15N 44°18' E 009°14'1 0.0
2016-May-25 17:09N 44°18' E 009°13'0 0.1
2016-May-25 16:33N 44°18' E 009°13'0 0.0
2016-May-25 15:27N 44°18' E 009°13'1 1.2
2016-May-25 14:33N 44°18' E 009°12'1111.1
2016-May-25 13:33N 44°22' E 008°57'3 3.0
2016-May-25 12:32N 44°25' E 008°55'0 0.0
2016-May-25 11:32N 44°25' E 008°55'0 0.0
2016-May-25 10:29N 44°25' E 008°55'0 0.0
2016-May-25 09:23N 44°25' E 008°55'0 0.0
2016-May-25 08:29N 44°25' E 008°55'0 0.0
2016-May-25 07:26N 44°25' E 008°55'0 0.0
2016-May-25 06:29N 44°25' E 008°55'0 0.0
2016-May-25 05:29N 44°25' E 008°55'0 0.0
2016-May-25 04:32N 44°25' E 008°55'0 0.0
2016-May-25 03:32N 44°25' E 008°55'0 0.0
2016-May-25 02:32N 44°25' E 008°55'0 0.0
2016-May-25 01:32N 44°25' E 008°55'0 0.0
2016-May-25 00:32N 44°25' E 008°55'0 0.0
2016-May-24 23:32N 44°25' E 008°55'0 0.0
2016-May-24 22:32N 44°25' E 008°55'0 0.0
2016-May-24 21:32N 44°25' E 008°55'0 0.0
2016-May-24 20:32N 44°25' E 008°55'  

Dump ship's entire track history